Time;durP1;ratioP1;P1;durP2;ratioP2;P2;SDS_P1;SDS_P2;PMS_P1;PMS_P2;Temp;Humidity;BMP_temperature;BMP_pressure;BME280_temperature;BME280_humidity;BME280_pressure;Samples;Min_cycle;Max_cycle;Signal;HPM_P1;HPM_P2
2023/01/05 00:01:32;;;;;;;;;0.00;0.00;;;;;;;;5082454;27;61784;-75
2023/01/05 00:03:58;;;;;;;;;3.50;0.00;;;;;;;;5081625;27;62748;-75
2023/01/05 00:06:23;;;;;;;;;0.75;0.00;;;;;;;;5082088;28;61759;-75
2023/01/05 00:08:48;;;;;;;;;3.00;2.25;;;;;;;;5080620;28;61990;-76
2023/01/05 00:22:30;;;;;;;;;0.00;0.00;;;;;;;;5101263;27;61840;-75
2023/01/05 00:25:09;;;;;;;;;0.00;0.00;;;;;;;;5101904;27;62784;-75
2023/01/05 00:27:35;;;;;;;;;0.00;0.00;;;;;;;;5100870;27;62077;-75
2023/01/05 00:30:00;;;;;;;;;0.00;0.00;;;;;;;;5102475;27;61979;-75
2023/01/05 00:32:26;;;;;;;;;0.00;0.00;;;;;;;;5102635;27;61774;-75
2023/01/05 00:34:55;;;;;;;;;0.00;0.00;;;;;;;;5101513;27;61882;-75
2023/01/05 00:37:24;;;;;;;;;0.25;0.00;;;;;;;;5100901;27;61766;-75
2023/01/05 00:39:49;;;;;;;;;0.00;0.00;;;;;;;;5102152;27;61834;-75
2023/01/05 00:42:14;;;;;;;;;0.00;0.00;;;;;;;;5101031;27;62061;-75
2023/01/05 00:44:40;;;;;;;;;0.75;0.00;;;;;;;;5103322;27;62788;-76
2023/01/05 00:47:05;;;;;;;;;2.00;0.00;;;;;;;;5105744;27;61758;-75
2023/01/05 00:49:30;;;;;;;;;1.00;0.00;;;;;;;;5105188;27;61783;-75
2023/01/05 00:51:55;;;;;;;;;0.00;0.00;;;;;;;;5105925;27;62212;-75
2023/01/05 00:54:21;;;;;;;;;0.00;0.00;;;;;;;;5105076;27;62790;-75
2023/01/05 00:56:48;;;;;;;;;3.25;0.00;;;;;;;;5105511;27;61737;-75
2023/01/05 00:59:13;;;;;;;;;0.00;0.00;;;;;;;;5105746;27;61913;-75
2023/01/05 01:01:39;;;;;;;;;0.00;0.00;;;;;;;;5104348;27;61784;-76
2023/01/05 01:04:04;;;;;;;;;0.00;0.00;;;;;;;;5103197;27;63699;-75
2023/01/05 01:06:29;;;;;;;;;0.00;0.00;;;;;;;;5105670;27;61667;-75
2023/01/05 01:08:54;;;;;;;;;0.00;0.00;;;;;;;;5105148;27;61699;-75
2023/01/05 01:11:20;;;;;;;;;0.00;0.00;;;;;;;;5105897;27;61817;-75
2023/01/05 01:13:45;;;;;;;;;0.00;0.00;;;;;;;;5104632;27;62660;-75
2023/01/05 01:16:12;;;;;;;;;0.00;0.00;;;;;;;;5105416;27;61859;-75
2023/01/05 01:18:37;;;;;;;;;0.00;0.00;;;;;;;;5105099;27;61804;-75
2023/01/05 01:21:03;;;;;;;;;1.50;0.00;;;;;;;;5104884;27;62084;-75
2023/01/05 01:23:28;;;;;;;;;0.00;0.00;;;;;;;;5104621;27;62651;-75
2023/01/05 01:25:55;;;;;;;;;2.50;0.00;;;;;;;;5105060;27;61937;-75
2023/01/05 01:28:20;;;;;;;;;0.00;0.00;;;;;;;;5103929;27;61903;-75
2023/01/05 01:30:46;;;;;;;;;0.00;0.00;;;;;;;;5105267;27;62085;-75
2023/01/05 01:33:11;;;;;;;;;0.00;0.00;;;;;;;;5104622;27;62447;-75
2023/01/05 01:35:36;;;;;;;;;0.00;0.00;;;;;;;;5102506;27;61940;-75
2023/01/05 01:38:02;;;;;;;;;0.00;0.00;;;;;;;;5084547;27;61953;-75
2023/01/05 01:40:28;;;;;;;;;0.00;0.00;;;;;;;;5083228;28;61940;-75
2023/01/05 01:42:53;;;;;;;;;2.00;0.00;;;;;;;;5083520;28;61776;-75
2023/01/05 01:45:20;;;;;;;;;2.00;0.75;;;;;;;;5084603;27;61932;-75
2023/01/05 01:48:03;;;;;;;;;0.25;0.00;;;;;;;;5084146;27;61950;-75
2023/01/05 01:50:33;;;;;;;;;0.75;0.50;;;;;;;;5084113;27;61865;-75
2023/01/05 01:53:06;;;;;;;;;0.25;0.25;;;;;;;;5083529;28;61830;-75
2023/01/05 01:55:32;;;;;;;;;0.00;0.00;;;;;;;;5083001;27;61793;-75
2023/01/05 01:57:59;;;;;;;;;0.50;0.00;;;;;;;;5084205;28;61783;-75
2023/01/05 02:00:24;;;;;;;;;0.00;0.00;;;;;;;;5084448;27;62005;-75
2023/01/05 02:02:51;;;;;;;;;0.00;0.00;;;;;;;;5081666;28;64821;-75
2023/01/05 02:05:18;;;;;;;;;1.00;0.00;;;;;;;;5084154;28;61944;-75
2023/01/05 02:07:44;;;;;;;;;0.00;0.00;;;;;;;;5082555;28;61998;-75
2023/01/05 02:10:10;;;;;;;;;1.00;0.00;;;;;;;;5084114;27;61836;-75
2023/01/05 02:12:42;;;;;;;;;0.50;0.00;;;;;;;;5082121;28;63922;-75
2023/01/05 02:15:29;;;;;;;;;0.00;0.00;;;;;;;;5082346;28;61782;-75
2023/01/05 02:17:54;;;;;;;;;0.00;0.00;;;;;;;;5083748;28;61892;-75
2023/01/05 02:20:27;;;;;;;;;0.25;0.25;;;;;;;;5085189;27;62025;-75
2023/01/05 02:22:58;;;;;;;;;1.00;0.00;;;;;;;;5103504;27;61864;-75
2023/01/05 02:25:24;;;;;;;;;1.25;1.25;;;;;;;;5103969;27;61829;-75
2023/01/05 02:27:53;;;;;;;;;0.00;0.00;;;;;;;;5104124;27;61790;-75
2023/01/05 02:30:24;;;;;;;;;2.00;1.00;;;;;;;;5102757;27;61775;-75
2023/01/05 02:32:56;;;;;;;;;1.75;1.00;;;;;;;;5103219;27;61919;-75
2023/01/05 02:35:31;;;;;;;;;1.50;0.00;;;;;;;;5103924;27;61974;-75
2023/01/05 02:38:04;;;;;;;;;1.50;0.00;;;;;;;;5103931;27;61839;-75
2023/01/05 02:40:36;;;;;;;;;2.00;0.00;;;;;;;;5102825;27;61948;-75
2023/01/05 02:43:02;;;;;;;;;2.25;0.25;;;;;;;;5103181;27;61796;-75
2023/01/05 02:45:27;;;;;;;;;1.00;1.00;;;;;;;;5103603;27;61836;-75
2023/01/05 02:47:53;;;;;;;;;0.00;0.00;;;;;;;;5103885;27;61787;-75
2023/01/05 02:50:38;;;;;;;;;1.25;0.00;;;;;;;;5103613;27;61898;-75
2023/01/05 02:53:21;;;;;;;;;1.00;0.00;;;;;;;;5102994;27;63175;-75
2023/01/05 02:55:50;;;;;;;;;0.50;0.50;;;;;;;;5103723;27;61855;-75
2023/01/05 02:58:22;;;;;;;;;1.00;0.00;;;;;;;;5103681;27;61757;-75
2023/01/05 03:00:51;;;;;;;;;3.25;0.00;;;;;;;;5102394;27;61694;-75
2023/01/05 03:03:23;;;;;;;;;2.50;1.00;;;;;;;;5102759;27;61832;-75
2023/01/05 03:05:52;;;;;;;;;3.75;1.00;;;;;;;;5103573;27;61771;-75
2023/01/05 03:08:23;;;;;;;;;0.75;0.75;;;;;;;;5102874;27;62024;-75
2023/01/05 03:13:40;;;;;;;;;0.00;0.00;;;;;;;;5102949;27;61700;-75
2023/01/05 03:16:07;;;;;;;;;3.75;1.00;;;;;;;;5103000;27;62022;-75
2023/01/05 03:19:34;;;;;;;;;2.50;0.25;;;;;;;;5102051;27;61934;-75
2023/01/05 03:21:19;;;;;;;;;1.25;0.00;;;;;;;;5102656;27;61906;-75
2023/01/05 03:37:48;;;;;;;;;0.00;0.00;;;;;;;;5103070;27;61825;-75
2023/01/05 03:40:17;;;;;;;;;2.25;2.00;;;;;;;;5102725;27;62019;-75
2023/01/05 03:42:42;;;;;;;;;1.50;1.00;;;;;;;;5103076;27;61960;-75
2023/01/05 03:45:09;;;;;;;;;4.00;1.00;;;;;;;;5102123;27;61801;-75
2023/01/05 03:47:34;;;;;;;;;1.00;0.00;;;;;;;;5103134;27;61851;-75
2023/01/05 03:50:00;;;;;;;;;3.75;0.00;;;;;;;;5102683;27;61982;-75
2023/01/05 03:52:25;;;;;;;;;2.00;1.00;;;;;;;;5103001;27;61787;-75
2023/01/05 03:54:50;;;;;;;;;2.25;0.00;;;;;;;;5100857;27;64987;-75
2023/01/05 03:57:16;;;;;;;;;0.00;0.00;;;;;;;;5102889;27;61816;-75
2023/01/05 03:59:41;;;;;;;;;0.00;0.00;;;;;;;;5102834;27;61770;-75
2023/01/05 04:02:06;;;;;;;;;2.50;1.00;;;;;;;;5102929;27;61718;-75
2023/01/05 04:04:32;;;;;;;;;0.25;0.00;;;;;;;;5102293;27;62811;-75
2023/01/05 04:06:57;;;;;;;;;0.00;0.00;;;;;;;;5102525;27;61899;-75
2023/01/05 04:09:22;;;;;;;;;2.00;0.00;;;;;;;;5101175;27;61887;-75
2023/01/05 04:11:47;;;;;;;;;0.00;0.00;;;;;;;;5103256;27;61913;-75
2023/01/05 04:14:12;;;;;;;;;1.00;1.00;;;;;;;;5100239;27;63730;-75
2023/01/05 04:16:38;;;;;;;;;0.00;0.00;;;;;;;;5102677;27;61798;-75
2023/01/05 04:19:03;;;;;;;;;1.25;0.00;;;;;;;;5103100;27;61803;-75
2023/01/05 04:21:28;;;;;;;;;1.00;1.00;;;;;;;;5106045;27;61890;-75
2023/01/05 04:23:54;;;;;;;;;0.25;0.25;;;;;;;;5104294;27;63587;-75
2023/01/05 04:26:19;;;;;;;;;1.00;0.00;;;;;;;;5105659;27;61954;-75
2023/01/05 04:28:44;;;;;;;;;1.75;1.25;;;;;;;;5104843;27;61847;-75
2023/01/05 04:31:09;;;;;;;;;1.00;1.00;;;;;;;;5104725;27;62028;-75
2023/01/05 04:33:35;;;;;;;;;0.75;0.00;;;;;;;;5104036;27;63886;-75
2023/01/05 04:36:00;;;;;;;;;0.75;0.75;;;;;;;;5106026;27;61858;-75
2023/01/05 04:38:25;;;;;;;;;2.25;0.00;;;;;;;;5105675;27;61694;-75
2023/01/05 04:40:51;;;;;;;;;0.00;0.00;;;;;;;;5105932;27;61703;-75
2023/01/05 04:43:17;;;;;;;;;1.00;1.00;;;;;;;;5105072;27;61773;-75
2023/01/05 04:45:44;;;;;;;;;1.00;1.00;;;;;;;;5104503;27;61830;-75
2023/01/05 04:48:09;;;;;;;;;0.00;0.00;;;;;;;;5105660;27;61823;-75
2023/01/05 04:50:35;;;;;;;;;3.00;0.00;;;;;;;;5104146;27;61998;-75
2023/01/05 04:53:00;;;;;;;;;2.50;0.00;;;;;;;;5104906;27;61760;-75
2023/01/05 04:55:26;;;;;;;;;1.00;0.25;;;;;;;;5105275;27;61870;-75
2023/01/05 04:57:51;;;;;;;;;0.75;0.75;;;;;;;;5104529;27;61924;-75
2023/01/05 05:00:17;;;;;;;;;1.00;0.00;;;;;;;;5104090;27;62149;-75
2023/01/05 05:02:42;;;;;;;;;0.00;0.00;;;;;;;;5104996;27;62592;-75
2023/01/05 05:05:07;;;;;;;;;1.00;0.75;;;;;;;;5105566;27;61883;-75
2023/01/05 05:07:33;;;;;;;;;1.00;1.00;;;;;;;;5105045;27;62034;-75
2023/01/05 05:09:58;;;;;;;;;1.00;0.00;;;;;;;;5105699;27;61782;-75
2023/01/05 05:12:23;;;;;;;;;0.00;0.00;;;;;;;;5103299;27;63854;-75
2023/01/05 05:14:48;;;;;;;;;1.75;0.00;;;;;;;;5105393;27;61643;-75
2023/01/05 05:17:15;;;;;;;;;0.00;0.00;;;;;;;;5105384;27;61966;-76
2023/01/05 05:19:40;;;;;;;;;1.00;0.00;;;;;;;;5103872;27;61964;-75
2023/01/05 05:22:05;;;;;;;;;0.00;0.00;;;;;;;;5104299;27;62593;-76
2023/01/05 05:24:31;;;;;;;;;0.00;0.00;;;;;;;;5104712;27;61765;-75
2023/01/05 05:26:56;;;;;;;;;0.00;0.00;;;;;;;;5103970;27;62526;-75
2023/01/05 05:29:22;;;;;;;;;0.00;0.00;;;;;;;;5105283;27;61859;-75
2023/01/05 05:31:47;;;;;;;;;0.00;0.00;;;;;;;;5104434;27;61833;-75
2023/01/05 05:34:12;;;;;;;;;0.00;0.00;;;;;;;;5105283;27;61812;-76
2023/01/05 05:36:37;;;;;;;;;0.00;0.00;;;;;;;;5104931;27;61853;-75
2023/01/05 05:39:10;;;;;;;;;0.00;0.00;;;;;;;;5104861;27;61754;-75
2023/01/05 05:41:37;;;;;;;;;0.00;0.00;;;;;;;;5102804;27;61893;-76
2023/01/05 05:44:04;;;;;;;;;0.00;0.00;;;;;;;;5104714;27;61790;-75
2023/01/05 05:46:29;;;;;;;;;0.00;0.00;;;;;;;;5104629;27;61901;-75
2023/01/05 05:48:55;;;;;;;;;0.75;0.75;;;;;;;;5104771;27;61757;-76
2023/01/05 05:51:20;;;;;;;;;4.00;0.00;;;;;;;;5103879;27;62749;-76
2023/01/05 05:53:45;;;;;;;;;1.00;0.00;;;;;;;;5103028;27;62018;-75
2023/01/05 05:56:11;;;;;;;;;1.50;0.50;;;;;;;;5104603;27;61684;-75
2023/01/05 05:58:36;;;;;;;;;0.00;0.00;;;;;;;;5104795;27;61949;-75
2023/01/05 06:01:01;;;;;;;;;1.00;0.00;;;;;;;;5103951;27;62625;-75
2023/01/05 06:03:26;;;;;;;;;0.00;0.00;;;;;;;;5104331;27;61822;-76
2023/01/05 06:05:52;;;;;;;;;0.50;0.50;;;;;;;;5104584;27;61725;-75
2023/01/05 06:08:17;;;;;;;;;1.00;0.00;;;;;;;;5103892;27;62019;-77
2023/01/05 06:10:42;;;;;;;;;0.25;0.00;;;;;;;;5103683;27;61972;-77
2023/01/05 06:13:07;;;;;;;;;2.00;1.00;;;;;;;;5104455;27;61697;-77
2023/01/05 06:15:33;;;;;;;;;0.00;0.00;;;;;;;;5104142;27;61705;-76
2023/01/05 06:17:58;;;;;;;;;1.00;0.00;;;;;;;;5103235;27;62083;-77
2023/01/05 06:20:23;;;;;;;;;0.00;0.00;;;;;;;;5102161;27;63446;-77
2023/01/05 06:22:48;;;;;;;;;1.00;1.00;;;;;;;;5102733;27;61739;-77
2023/01/05 06:25:14;;;;;;;;;1.00;0.00;;;;;;;;5104547;27;61727;-78
2023/01/05 06:27:39;;;;;;;;;1.00;0.00;;;;;;;;5102730;27;61857;-77
2023/01/05 06:30:05;;;;;;;;;0.00;0.00;;;;;;;;5103455;27;62628;-77
2023/01/05 06:32:30;;;;;;;;;2.50;0.00;;;;;;;;5103044;27;61978;-76
2023/01/05 06:34:56;;;;;;;;;0.50;0.00;;;;;;;;5103992;27;61749;-75
2023/01/05 06:37:21;;;;;;;;;1.50;0.00;;;;;;;;5103830;27;61811;-75
2023/01/05 06:39:46;;;;;;;;;0.00;0.00;;;;;;;;5101824;27;63760;-76
2023/01/05 06:42:11;;;;;;;;;1.50;0.50;;;;;;;;5087996;27;62171;-75
2023/01/05 06:44:37;;;;;;;;;0.00;0.00;;;;;;;;5081955;28;61813;-75
2023/01/05 06:47:02;;;;;;;;;1.00;0.00;;;;;;;;5083358;28;61749;-75
2023/01/05 06:49:27;;;;;;;;;0.00;0.00;;;;;;;;5081033;28;63732;-75
2023/01/05 06:51:53;;;;;;;;;1.75;0.00;;;;;;;;5082730;28;61881;-76
2023/01/05 06:54:18;;;;;;;;;1.00;0.00;;;;;;;;5083004;28;61810;-76
2023/01/05 06:56:43;;;;;;;;;0.00;0.00;;;;;;;;5082486;28;62320;-76
2023/01/05 06:59:10;;;;;;;;;1.25;0.75;;;;;;;;5081979;28;61974;-76
2023/01/05 07:01:35;;;;;;;;;1.00;0.00;;;;;;;;5079560;28;61935;-76
2023/01/05 07:04:00;;;;;;;;;0.00;0.00;;;;;;;;5082383;27;62141;-76
2023/01/05 07:06:26;;;;;;;;;0.25;0.00;;;;;;;;5082244;28;62011;-76
2023/01/05 07:08:51;;;;;;;;;1.00;1.00;;;;;;;;5080136;28;64055;-76
2023/01/05 07:11:16;;;;;;;;;0.00;0.00;;;;;;;;5081843;28;62074;-77
2023/01/05 07:13:45;;;;;;;;;0.50;0.50;;;;;;;;5081457;28;61895;-76
2023/01/05 07:16:10;;;;;;;;;2.00;0.75;;;;;;;;5083190;27;61795;-76
2023/01/05 07:18:36;;;;;;;;;1.00;1.00;;;;;;;;5082075;28;62009;-75
2023/01/05 07:21:01;;;;;;;;;0.50;0.00;;;;;;;;5075738;27;61990;-79
2023/01/05 07:23:28;;;;;;;;;1.00;1.00;;;;;;;;5075708;28;61863;-78
2023/01/05 07:25:54;;;;;;;;;1.00;1.00;;;;;;;;5081613;28;61738;-78
2023/01/05 07:28:19;;;;;;;;;1.00;1.00;;;;;;;;5075502;28;63275;-78
2023/01/05 07:30:50;;;;;;;;;2.00;0.25;;;;;;;;5080912;28;61722;-77
2023/01/05 07:33:15;;;;;;;;;1.00;1.00;;;;;;;;5082980;27;61976;-76
2023/01/05 07:35:40;;;;;;;;;2.00;1.00;;;;;;;;5081831;28;62107;-79
2023/01/05 07:38:06;;;;;;;;;1.00;1.00;;;;;;;;5078514;28;63875;-79
2023/01/05 07:40:31;;;;;;;;;1.50;1.00;;;;;;;;5080511;28;61870;-78
2023/01/05 07:42:56;;;;;;;;;1.00;1.00;;;;;;;;5081832;28;61936;-79
2023/01/05 07:45:21;;;;;;;;;0.50;0.00;;;;;;;;5082424;28;62211;-78
2023/01/05 07:47:47;;;;;;;;;1.00;1.00;;;;;;;;5081229;28;62862;-78
2023/01/05 07:50:14;;;;;;;;;1.00;1.00;;;;;;;;5081929;28;61877;-77
2023/01/05 07:52:39;;;;;;;;;2.00;1.00;;;;;;;;5081661;27;61892;-79
2023/01/05 07:55:05;;;;;;;;;0.00;0.00;;;;;;;;5080012;27;61896;-77
2023/01/05 07:57:30;;;;;;;;;4.75;1.50;;;;;;;;5111455;27;64635;-79
2023/01/05 07:59:55;;;;;;;;;1.75;1.75;;;;;;;;5080857;27;62193;-77
2023/01/05 08:02:21;;;;;;;;;1.50;1.50;;;;;;;;5082224;27;62191;-77
2023/01/05 08:04:46;;;;;;;;;3.00;2.00;;;;;;;;5079733;28;61927;-78
2023/01/05 08:07:13;;;;;;;;;1.25;1.25;;;;;;;;5081205;28;61984;-77
2023/01/05 08:12:23;;;;;;;;;2.00;2.00;;;;;;;;5079124;28;61955;-76
2023/01/05 08:14:48;;;;;;;;;2.50;1.00;;;;;;;;5081565;27;62125;-76
2023/01/05 08:17:13;;;;;;;;;1.75;1.00;;;;;;;;5075458;28;61814;-76
2023/01/05 08:19:38;;;;;;;;;0.00;0.00;;;;;;;;5085599;27;61916;-76
2023/01/05 08:22:04;;;;;;;;;0.00;0.00;;;;;;;;5081904;27;62071;-76
2023/01/05 08:24:29;;;;;;;;;1.00;0.00;;;;;;;;5081984;28;61822;-76
2023/01/05 08:26:55;;;;;;;;;0.00;0.00;;;;;;;;5095509;27;63586;-77
2023/01/05 08:29:20;;;;;;;;;1.75;1.00;;;;;;;;5092359;27;61797;-77
2023/01/05 08:31:45;;;;;;;;;1.75;1.00;;;;;;;;5080376;28;61829;-78
2023/01/05 08:34:11;;;;;;;;;0.25;0.25;;;;;;;;5079004;27;61868;-76
2023/01/05 08:36:36;;;;;;;;;0.00;0.00;;;;;;;;5078574;27;61692;-77
2023/01/05 08:39:02;;;;;;;;;0.25;0.00;;;;;;;;5077973;28;61774;-77
2023/01/05 08:41:30;;;;;;;;;0.00;0.00;;;;;;;;5080214;27;61727;-77
2023/01/05 08:43:56;;;;;;;;;0.00;0.00;;;;;;;;5080304;27;62133;-77
2023/01/05 08:46:23;;;;;;;;;1.00;1.00;;;;;;;;5081063;27;64892;-77
2023/01/05 08:48:52;;;;;;;;;0.00;0.00;;;;;;;;5070987;27;65057;-78
2023/01/05 08:51:17;;;;;;;;;0.00;0.00;;;;;;;;5073572;28;61969;-77
2023/01/05 08:53:43;;;;;;;;;0.00;0.00;;;;;;;;5079899;27;62024;-78
2023/01/05 08:56:09;;;;;;;;;1.00;0.00;;;;;;;;5079522;27;62264;-77
2023/01/05 08:58:35;;;;;;;;;2.00;0.00;;;;;;;;5079129;27;61923;-77
2023/01/05 09:01:04;;;;;;;;;0.00;0.00;;;;;;;;5079043;28;61813;-77
2023/01/05 09:03:36;;;;;;;;;2.50;0.00;;;;;;;;5081999;27;61777;-77
2023/01/05 09:06:08;;;;;;;;;0.00;0.00;;;;;;;;5081261;27;61823;-77
2023/01/05 09:08:33;;;;;;;;;0.00;0.00;;;;;;;;5081460;28;61981;-77
2023/01/05 09:11:09;;;;;;;;;0.00;0.00;;;;;;;;5085472;27;62002;-77
2023/01/05 09:13:35;;;;;;;;;0.00;0.00;;;;;;;;5084768;27;61727;-77
2023/01/05 09:16:10;;;;;;;;;0.00;0.00;;;;;;;;5082256;28;64968;-76
2023/01/05 09:18:37;;;;;;;;;0.25;0.00;;;;;;;;5082270;28;61757;-76
2023/01/05 09:21:02;;;;;;;;;0.00;0.00;;;;;;;;5084204;27;61896;-76
2023/01/05 09:23:28;;;;;;;;;0.00;0.00;;;;;;;;5082341;27;61853;-76
2023/01/05 09:25:53;;;;;;;;;1.00;0.00;;;;;;;;5083888;28;62850;-76
2023/01/05 09:28:24;;;;;;;;;0.00;0.00;;;;;;;;5084368;28;61790;-76
2023/01/05 09:30:50;;;;;;;;;0.00;0.00;;;;;;;;5084004;28;61858;-77
2023/01/05 09:33:16;;;;;;;;;1.00;1.00;;;;;;;;5085258;27;62013;-77
2023/01/05 09:35:41;;;;;;;;;1.50;0.00;;;;;;;;5081859;28;64178;-78
2023/01/05 09:38:06;;;;;;;;;0.00;0.00;;;;;;;;5084987;27;61814;-77
2023/01/05 09:40:39;;;;;;;;;0.00;0.00;;;;;;;;5083072;28;61761;-76
2023/01/05 09:43:04;;;;;;;;;2.00;0.75;;;;;;;;5081233;27;61924;-77
2023/01/05 09:45:30;;;;;;;;;1.50;0.00;;;;;;;;5083641;27;61769;-79
2023/01/05 09:47:58;;;;;;;;;0.00;0.00;;;;;;;;5087746;27;61859;-77
2023/01/05 09:50:24;;;;;;;;;1.00;0.00;;;;;;;;5084658;27;61892;-77
2023/01/05 09:52:51;;;;;;;;;0.00;0.00;;;;;;;;5083729;27;61849;-77
2023/01/05 09:55:18;;;;;;;;;0.00;0.00;;;;;;;;5081337;28;64999;-78
2023/01/05 09:57:52;;;;;;;;;0.25;0.00;;;;;;;;5082835;28;61939;-77
2023/01/05 10:00:20;;;;;;;;;0.00;0.00;;;;;;;;5072671;28;61744;-79
2023/01/05 10:02:49;;;;;;;;;0.00;0.00;;;;;;;;5076732;28;62429;-79
2023/01/05 10:05:14;;;;;;;;;0.00;0.00;;;;;;;;5082270;28;62250;-78
2023/01/05 10:07:48;;;;;;;;;0.00;0.00;;;;;;;;5082984;27;62007;-78
2023/01/05 10:10:20;;;;;;;;;1.00;0.00;;;;;;;;5083356;28;61751;-77
2023/01/05 10:13:02;;;;;;;;;0.00;0.00;;;;;;;;5081035;28;62010;-77
2023/01/05 10:15:33;;;;;;;;;0.00;0.00;;;;;;;;5062146;28;62083;-77
2023/01/05 10:18:01;;;;;;;;;0.00;0.00;;;;;;;;5103164;27;61775;-78
2023/01/05 10:20:49;;;;;;;;;1.00;0.00;;;;;;;;5082690;28;61820;-78
2023/01/05 10:23:17;;;;;;;;;0.75;0.75;;;;;;;;5082054;28;61870;-77
2023/01/05 10:25:48;;;;;;;;;0.75;0.75;;;;;;;;5082589;28;62100;-78
2023/01/05 10:28:30;;;;;;;;;0.25;0.00;;;;;;;;5084311;28;62064;-77
2023/01/05 10:30:59;;;;;;;;;0.00;0.00;;;;;;;;5072506;27;61735;-77
2023/01/05 10:33:28;;;;;;;;;0.00;0.00;;;;;;;;5061295;28;61887;-77
2023/01/05 10:35:53;;;;;;;;;0.00;0.00;;;;;;;;5062414;28;62748;-79
2023/01/05 10:38:18;;;;;;;;;0.00;0.00;;;;;;;;5077861;28;61801;-79
2023/01/05 10:40:46;;;;;;;;;0.00;0.00;;;;;;;;5081680;27;61867;-78
2023/01/05 10:43:24;;;;;;;;;0.00;0.00;;;;;;;;5077187;28;61927;-79
2023/01/05 10:45:49;;;;;;;;;0.00;0.00;;;;;;;;5081731;28;61917;-78
2023/01/05 10:48:18;;;;;;;;;0.00;0.00;;;;;;;;5069632;28;62042;-79
2023/01/05 10:50:45;;;;;;;;;0.00;0.00;;;;;;;;5087623;27;61938;-78
2023/01/05 10:53:21;;;;;;;;;0.00;0.00;;;;;;;;5082805;28;62081;-77
2023/01/05 10:55:56;;;;;;;;;0.00;0.00;;;;;;;;5081603;27;62090;-77
2023/01/05 10:58:23;;;;;;;;;1.00;0.00;;;;;;;;5081780;27;62006;-78
2023/01/05 11:00:49;;;;;;;;;0.00;0.00;;;;;;;;5082774;27;61802;-79
2023/01/05 11:03:15;;;;;;;;;0.00;0.00;;;;;;;;5082387;27;61833;-78
2023/01/05 11:05:44;;;;;;;;;1.00;0.00;;;;;;;;5079737;28;64089;-78
2023/01/05 11:08:12;;;;;;;;;0.00;0.00;;;;;;;;5082688;27;61880;-78
2023/01/05 11:10:46;;;;;;;;;0.00;0.00;;;;;;;;5083186;28;61709;-78
2023/01/05 11:13:14;;;;;;;;;0.25;0.25;;;;;;;;5083755;28;61881;-77
2023/01/05 11:15:41;;;;;;;;;0.00;0.00;;;;;;;;5082792;28;61908;-78
2023/01/05 11:18:18;;;;;;;;;0.00;0.00;;;;;;;;5083013;28;61798;-79
2023/01/05 11:21:03;;;;;;;;;0.00;0.00;;;;;;;;5083447;27;61856;-79
2023/01/05 11:23:34;;;;;;;;;0.00;0.00;;;;;;;;5083173;27;61688;-78
2023/01/05 11:26:19;;;;;;;;;0.00;0.00;;;;;;;;5081581;27;61887;-78
2023/01/05 11:28:58;;;;;;;;;1.75;1.00;;;;;;;;5113328;27;61767;-78
2023/01/05 11:31:32;;;;;;;;;0.00;0.00;;;;;;;;5082615;27;61817;-77
2023/01/05 11:33:58;;;;;;;;;1.25;0.00;;;;;;;;5082438;27;61879;-77
2023/01/05 11:36:24;;;;;;;;;0.00;0.00;;;;;;;;5081477;27;61741;-77
2023/01/05 11:38:54;;;;;;;;;1.33;0.00;;;;;;;;5072102;27;61804;-77
2023/01/05 11:41:23;;;;;;;;;0.75;0.75;;;;;;;;5061878;28;61949;-77
2023/01/05 11:43:49;;;;;;;;;0.25;0.25;;;;;;;;5072732;28;62167;-77
2023/01/05 11:46:15;;;;;;;;;0.00;0.00;;;;;;;;5081247;28;61806;-77
2023/01/05 11:48:48;;;;;;;;;0.00;0.00;;;;;;;;5079855;28;62069;-77
2023/01/05 11:51:33;;;;;;;;;1.33;0.00;;;;;;;;5080592;28;61878;-77
2023/01/05 11:53:59;;;;;;;;;0.00;0.00;;;;;;;;5081537;28;61831;-77
2023/01/05 11:56:24;;;;;;;;;0.00;0.00;;;;;;;;5064690;28;63888;-77
2023/01/05 11:58:51;;;;;;;;;0.00;0.00;;;;;;;;5063720;28;61966;-77
2023/01/05 12:01:43;;;;;;;;;1.00;0.00;;;;;;;;5082191;28;61602;-78
2023/01/05 12:04:08;;;;;;;;;0.00;0.00;;;;;;;;5082124;28;61877;-78
2023/01/05 12:06:36;;;;;;;;;0.00;0.00;;;;;;;;5080494;28;61833;-79
2023/01/05 12:09:02;;;;;;;;;1.00;1.00;;;;;;;;5093439;27;62069;-79
2023/01/05 12:11:31;;;;;;;;;2.00;1.00;;;;;;;;5096444;27;61609;-79
2023/01/05 12:14:16;;;;;;;;;0.00;0.00;;;;;;;;5086261;27;61809;-77
2023/01/05 12:16:44;;;;;;;;;1.00;1.00;;;;;;;;5082591;27;62956;-77
2023/01/05 12:19:28;;;;;;;;;0.00;0.00;;;;;;;;5100352;27;61858;-78
2023/01/05 12:21:56;;;;;;;;;2.00;2.00;;;;;;;;5101470;27;62556;-79
2023/01/05 12:24:40;;;;;;;;;2.00;1.00;;;;;;;;5100477;27;62108;-79
2023/01/05 12:27:18;;;;;;;;;2.00;2.00;;;;;;;;5100790;27;61764;-80
2023/01/05 12:30:02;;;;;;;;;2.75;2.75;;;;;;;;5098856;27;61903;-79
2023/01/05 12:32:37;;;;;;;;;0.00;0.00;;;;;;;;5085425;27;62068;-80
2023/01/05 12:35:11;;;;;;;;;0.00;0.00;;;;;;;;5079796;28;62182;-79
2023/01/05 12:37:36;;;;;;;;;0.00;0.00;;;;;;;;5079435;28;63831;-80
2023/01/05 12:40:08;;;;;;;;;0.00;0.00;;;;;;;;5079963;28;61888;-79
2023/01/05 12:42:36;;;;;;;;;0.00;0.00;;;;;;;;5075875;28;61821;-79
2023/01/05 12:45:05;;;;;;;;;1.00;1.00;;;;;;;;5064432;28;61803;-79
2023/01/05 12:47:48;;;;;;;;;0.00;0.00;;;;;;;;5070647;28;62877;-79
2023/01/05 12:50:20;;;;;;;;;0.00;0.00;;;;;;;;5084807;27;62004;-79
2023/01/05 12:52:47;;;;;;;;;0.00;0.00;;;;;;;;5096395;27;61816;-80
2023/01/05 12:55:36;;;;;;;;;0.00;0.00;;;;;;;;5089360;27;62055;-81
2023/01/05 12:58:24;;;;;;;;;0.00;0.00;;;;;;;;5082451;28;64699;-80
2023/01/05 13:00:51;;;;;;;;;0.00;0.00;;;;;;;;5078512;28;61852;-80
2023/01/05 13:03:20;;;;;;;;;1.25;0.25;;;;;;;;5083601;27;61817;-80
2023/01/05 13:05:50;;;;;;;;;0.00;0.00;;;;;;;;5083148;28;61814;-80
2023/01/05 13:08:19;;;;;;;;;0.00;0.00;;;;;;;;5083729;28;62727;-77
2023/01/05 13:10:55;;;;;;;;;0.50;0.00;;;;;;;;5103076;27;62037;-80
2023/01/05 13:13:45;;;;;;;;;0.00;0.00;;;;;;;;5104935;27;61752;-80
2023/01/05 13:16:20;;;;;;;;;0.00;0.00;;;;;;;;5103603;27;61737;-80
2023/01/05 13:18:51;;;;;;;;;0.00;0.00;;;;;;;;5103840;27;62044;-80
2023/01/05 13:21:18;;;;;;;;;0.67;0.00;;;;;;;;5069848;27;61944;-80
2023/01/05 13:23:49;;;;;;;;;0.25;0.25;;;;;;;;5066603;28;61941;-78
2023/01/05 13:26:15;;;;;;;;;0.00;0.00;;;;;;;;5083710;27;61813;-79
2023/01/05 13:28:41;;;;;;;;;0.00;0.00;;;;;;;;5083229;28;62662;-80
2023/01/05 13:31:31;;;;;;;;;0.00;0.00;;;;;;;;5084001;27;61978;-79
2023/01/05 13:34:15;;;;;;;;;0.75;0.75;;;;;;;;5082736;28;61862;-80
2023/01/05 13:37:00;;;;;;;;;0.00;0.00;;;;;;;;5076533;28;61896;-80
2023/01/05 13:39:34;;;;;;;;;0.00;0.00;;;;;;;;5082921;28;61692;-79
2023/01/05 13:42:32;;;;;;;;;0.00;0.00;;;;;;;;5079049;28;61875;-76
2023/01/05 13:44:57;;;;;;;;;0.00;0.00;;;;;;;;5050987;28;62108;-78
2023/01/05 13:47:49;;;;;;;;;0.00;0.00;;;;;;;;5062108;28;62097;-77
2023/01/05 13:50:40;;;;;;;;;0.00;0.00;;;;;;;;5067848;28;62800;-77
2023/01/05 13:53:10;;;;;;;;;1.00;0.00;;;;;;;;5046167;28;62032;-77
2023/01/05 13:55:43;;;;;;;;;0.00;0.00;;;;;;;;5045394;28;61876;-77
2023/01/05 13:58:24;;;;;;;;;0.00;0.00;;;;;;;;5034893;28;62562;-79
2023/01/05 14:00:51;;;;;;;;;0.00;0.00;;;;;;;;5059463;28;61895;-79
2023/01/05 14:03:36;;;;;;;;;0.00;0.00;;;;;;;;5059113;28;61814;-79
2023/01/05 14:06:07;;;;;;;;;0.00;0.00;;;;;;;;5058391;28;62107;-79
2023/01/05 14:08:37;;;;;;;;;0.00;0.00;;;;;;;;5058523;28;62021;-79
2023/01/05 14:11:08;;;;;;;;;0.67;0.00;;;;;;;;5058083;28;63147;-79
2023/01/05 14:13:43;;;;;;;;;0.00;0.00;;;;;;;;5042724;28;61950;-79
2023/01/05 14:16:26;;;;;;;;;0.00;0.00;;;;;;;;5042190;28;62012;-79
2023/01/05 14:18:52;;;;;;;;;0.00;0.00;;;;;;;;5042025;28;62256;-79
2023/01/05 14:21:36;;;;;;;;;0.00;0.00;;;;;;;;5041191;28;63672;-79
2023/01/05 14:24:01;;;;;;;;;2.00;0.00;;;;;;;;5037859;28;61991;-79
2023/01/05 14:26:57;;;;;;;;;0.00;0.00;;;;;;;;5049623;28;62097;-78
2023/01/05 14:29:49;;;;;;;;;1.00;0.25;;;;;;;;5082529;28;61703;-79
2023/01/05 14:32:17;;;;;;;;;0.00;0.00;;;;;;;;5073651;27;63101;-78
2023/01/05 14:34:47;;;;;;;;;0.00;0.00;;;;;;;;5083235;27;61657;-78
2023/01/05 14:37:21;;;;;;;;;1.75;1.00;;;;;;;;5083246;27;61748;-78
2023/01/05 14:39:47;;;;;;;;;2.00;1.00;;;;;;;;5083395;27;62276;-78
2023/01/05 14:42:12;;;;;;;;;1.00;0.00;;;;;;;;5076283;27;62032;-79
2023/01/05 14:45:10;;;;;;;;;0.00;0.00;;;;;;;;5078379;28;61955;-79
2023/01/05 14:47:40;;;;;;;;;0.00;0.00;;;;;;;;5020157;28;62084;-78
2023/01/05 14:50:23;;;;;;;;;0.75;0.75;;;;;;;;5031652;28;61853;-79
2023/01/05 14:52:51;;;;;;;;;0.00;0.00;;;;;;;;5031811;28;63982;-78
2023/01/05 14:55:24;;;;;;;;;0.00;0.00;;;;;;;;5040205;28;62031;-79
2023/01/05 14:57:51;;;;;;;;;0.25;0.25;;;;;;;;5019885;28;61970;-78
2023/01/05 15:00:35;;;;;;;;;1.75;0.00;;;;;;;;5020162;28;61957;-79
2023/01/05 15:03:10;;;;;;;;;0.00;0.00;;;;;;;;5011181;28;63656;-80
2023/01/05 15:05:39;;;;;;;;;0.50;0.50;;;;;;;;5002808;28;61939;-79
2023/01/05 15:08:11;;;;;;;;;2.00;0.00;;;;;;;;5003271;28;62007;-79
2023/01/05 15:10:37;;;;;;;;;0.00;0.00;;;;;;;;5019984;28;62119;-79
2023/01/05 15:13:11;;;;;;;;;0.75;0.00;;;;;;;;5027853;28;61845;-76
2023/01/05 15:15:48;;;;;;;;;0.75;0.75;;;;;;;;5038126;28;62675;-77
2023/01/05 15:18:32;;;;;;;;;2.00;1.00;;;;;;;;5038307;28;61830;-77
2023/01/05 15:20:58;;;;;;;;;1.00;1.00;;;;;;;;5035873;28;62120;-79
2023/01/05 15:23:24;;;;;;;;;0.75;0.75;;;;;;;;5062002;28;61906;-79
2023/01/05 15:25:49;;;;;;;;;13.75;13.50;;;;;;;;5079377;28;62023;-79